Time;durP1;ratioP1;P1;durP2;ratioP2;P2;SDS_P1;SDS_P2;PMS_P1;PMS_P2;Temp;Humidity;BMP_temperature;BMP_pressure;BME280_temperature;BME280_humidity;BME280_pressure;Samples;Min_cycle;Max_cycle;Signal;HPM_P1;HPM_P2
2021/06/03 00:02:07;;;;;;;18.77;13.60;;;;;;;11.19;83.56;95051.20;1749775;82;20977;-57
2021/06/03 00:04:35;;;;;;;24.37;14.78;;;;;;;11.19;83.36;95049.06;1749619;82;21002;-57
2021/06/03 00:07:02;;;;;;;30.05;13.80;;;;;;;11.17;83.28;95059.13;1732035;82;20962;-56
2021/06/03 00:09:29;;;;;;;34.00;15.95;;;;;;;11.14;83.24;95055.14;1704523;84;20958;-57
2021/06/03 00:11:57;;;;;;;25.77;15.75;;;;;;;11.09;83.38;95052.92;1699005;84;21172;-57
2021/06/03 00:14:25;;;;;;;25.08;13.70;;;;;;;11.07;83.65;95052.01;1698946;83;20947;-57
2021/06/03 00:16:52;;;;;;;23.77;13.48;;;;;;;11.06;83.58;95050.47;1699235;84;21474;-55
2021/06/03 00:19:19;;;;;;;24.15;12.98;;;;;;;11.06;83.71;95058.73;1699019;84;21564;-56
2021/06/03 00:21:47;;;;;;;18.07;11.05;;;;;;;11.07;83.77;95049.25;1699172;84;21433;-57
2021/06/03 00:24:13;;;;;;;16.75;10.55;;;;;;;11.07;83.74;95056.13;1699002;84;21141;-56
2021/06/03 00:26:43;;;;;;;22.58;11.88;;;;;;;11.07;83.70;95053.38;1698925;83;21005;-57
2021/06/03 00:29:11;;;;;;;15.20;10.78;;;;;;;11.07;83.91;95054.77;1699406;84;21108;-56
2021/06/03 00:31:38;;;;;;;22.25;12.10;;;;;;;11.10;83.77;95056.63;1698947;83;20962;-57
2021/06/03 00:34:05;;;;;;;23.15;12.18;;;;;;;11.11;83.72;95066.42;1699136;84;20998;-56
2021/06/03 00:36:32;;;;;;;19.25;11.33;;;;;;;11.08;83.58;95060.43;1698979;84;21179;-55
2021/06/03 00:38:58;;;;;;;17.20;10.58;;;;;;;11.09;83.68;95058.43;1704460;84;20994;-56
2021/06/03 00:41:25;;;;;;;13.68;10.95;;;;;;;11.11;83.83;95056.00;1698934;83;21002;-57
2021/06/03 00:43:52;;;;;;;22.00;12.40;;;;;;;11.14;83.84;95055.89;1699110;84;21010;-57
2021/06/03 00:46:18;;;;;;;17.15;11.38;;;;;;;11.19;84.00;95056.70;1699011;84;20970;-57
2021/06/03 00:48:47;;;;;;;17.67;10.63;;;;;;;11.24;83.58;95060.30;1699113;84;21419;-56
2021/06/03 00:51:14;;;;;;;13.62;10.38;;;;;;;11.22;83.32;95053.68;1699014;84;20967;-56
2021/06/03 00:53:43;;;;;;;11.43;9.20;;;;;;;11.20;83.29;95054.11;1699114;84;21053;-57
2021/06/03 00:56:11;;;;;;;15.53;9.48;;;;;;;11.18;83.26;95053.03;1699187;84;21001;-56
2021/06/03 00:58:39;;;;;;;12.35;8.58;;;;;;;11.13;83.33;95054.36;1699119;83;20939;-57
2021/06/03 01:01:08;;;;;;;13.25;9.68;;;;;;;11.10;83.34;95053.08;1698779;84;21911;-56
2021/06/03 01:03:36;;;;;;;10.38;7.90;;;;;;;11.08;83.46;95049.41;1699348;83;21385;-56
2021/06/03 01:06:07;;;;;;;18.48;7.60;;;;;;;11.06;83.32;95044.17;1699220;84;20994;-57
2021/06/03 01:08:45;;;;;;;13.60;7.58;;;;;;;11.05;83.46;95051.68;1704494;82;20966;-56
2021/06/03 01:11:23;;;;;;;17.50;8.28;;;;;;;11.06;83.49;95048.30;1704385;83;21505;-57
2021/06/03 01:14:24;;;;;;;14.98;8.70;;;;;;;11.08;83.51;95046.66;1704427;82;22401;-57
2021/06/03 01:16:57;;;;;;;15.80;10.08;;;;;;;11.04;83.42;95043.26;1704384;83;20997;-56
2021/06/03 01:19:29;;;;;;;15.43;9.23;;;;;;;11.01;83.56;95041.36;1704426;83;21034;-55
2021/06/03 01:22:10;;;;;;;15.35;9.50;;;;;;;11.05;83.52;95035.16;1704661;84;20983;-55
2021/06/03 01:24:42;;;;;;;18.17;9.65;;;;;;;11.08;83.35;95035.64;1704700;84;21407;-56
2021/06/03 01:27:25;;;;;;;23.92;11.28;;;;;;;11.08;83.34;95037.02;1704811;82;21121;-55
2021/06/03 01:30:05;;;;;;;;;;;;;;;11.02;83.35;95030.52;1706945;84;21485;-57
2021/06/03 01:32:35;;;;;;;16.48;10.80;;;;;;;10.99;83.81;95037.53;1704539;84;20452;-56
2021/06/03 01:35:04;;;;;;;16.50;10.30;;;;;;;10.98;83.76;95035.38;1704380;83;21045;-56
2021/06/03 01:37:31;;;;;;;15.53;9.80;;;;;;;10.97;83.77;95035.21;1704402;82;21069;-57
2021/06/03 01:39:58;;;;;;;17.27;10.80;;;;;;;10.95;84.08;95030.75;1704326;82;21047;-57
2021/06/03 01:42:27;;;;;;;13.30;9.35;;;;;;;10.98;83.96;95032.62;1704260;83;20950;-57
2021/06/03 01:44:54;;;;;;;14.93;9.73;;;;;;;10.97;83.80;95037.96;1704502;84;21449;-57
2021/06/03 01:47:21;;;;;;;15.25;9.63;;;;;;;10.95;83.67;95034.88;1704536;83;21477;-57
2021/06/03 01:49:51;;;;;;;13.88;8.30;;;;;;;10.89;83.55;95038.03;1704391;84;21538;-57
2021/06/03 01:52:18;;;;;;;13.10;9.10;;;;;;;10.83;83.76;95030.77;1704810;84;21100;-55
2021/06/03 01:54:45;;;;;;;16.65;10.18;;;;;;;10.79;83.79;95039.75;1707665;83;20958;-56
2021/06/03 01:57:12;;;;;;;11.38;8.50;;;;;;;10.77;84.09;95041.55;1704308;84;21053;-57
2021/06/03 01:59:41;;;;;;;17.05;8.58;;;;;;;10.78;84.03;95042.34;1704000;84;21006;-56
2021/06/03 02:02:08;;;;;;;10.08;8.28;;;;;;;10.75;84.06;95037.10;1704724;84;20994;-57
2021/06/03 02:04:36;;;;;;;12.18;8.00;;;;;;;10.74;84.23;95039.69;1704366;84;21204;-58
2021/06/03 02:07:04;;;;;;;13.75;7.53;;;;;;;10.78;84.17;95044.47;1702488;82;20982;-56
2021/06/03 02:09:31;;;;;;;13.62;8.68;;;;;;;10.79;84.22;95041.88;1699070;84;21014;-56
2021/06/03 02:12:00;;;;;;;11.12;7.92;;;;;;;10.82;84.13;95041.00;1699105;84;21438;-56
2021/06/03 02:14:34;;;;;;;9.50;6.92;;;;;;;10.82;84.01;95046.50;1699053;84;20947;-56
2021/06/03 02:17:20;;;;;;;11.60;7.03;;;;;;;10.80;83.87;95048.17;1699153;84;21172;-56
2021/06/03 02:20:00;;;;;;;11.60;7.17;;;;;;;10.78;83.71;95045.09;1698707;84;20954;-56
2021/06/03 02:22:29;;;;;;;13.98;7.35;;;;;;;10.77;83.95;95054.56;1698725;83;20983;-56
2021/06/03 02:24:58;;;;;;;13.62;7.15;;;;;;;10.78;84.07;95051.35;1680929;84;21006;-57
2021/06/03 02:27:24;;;;;;;15.53;8.00;;;;;;;10.82;84.05;95055.37;1699061;83;21450;-60
2021/06/03 02:29:52;;;;;;;19.92;13.28;;;;;;;10.84;83.86;95053.70;1699339;84;22083;-57
2021/06/03 02:32:21;;;;;;;12.82;7.45;;;;;;;10.80;83.75;95051.68;1698963;84;21014;-57
2021/06/03 02:34:52;;;;;;;12.03;7.15;;;;;;;10.84;83.83;95057.08;1699140;84;21533;-56
2021/06/03 02:37:20;;;;;;;15.35;6.85;;;;;;;10.84;83.65;95055.08;1699339;83;21568;-57
2021/06/03 02:39:48;;;;;;;8.03;6.08;;;;;;;10.82;83.71;95057.51;1699236;84;20923;-55
2021/06/03 02:42:17;;;;;;;11.85;5.70;;;;;;;10.82;83.63;95053.38;1698882;83;21145;-57
2021/06/03 02:44:44;;;;;;;8.95;5.95;;;;;;;10.83;83.40;95058.30;1699013;84;20982;-56
2021/06/03 02:47:11;;;;;;;12.18;6.03;;;;;;;10.85;83.31;95059.41;1698998;84;21100;-57
2021/06/03 02:49:38;;;;;;;9.00;6.22;;;;;;;10.86;83.02;95058.78;1699021;84;20994;-57
2021/06/03 02:52:06;;;;;;;8.00;6.30;;;;;;;10.84;83.19;95055.70;1699046;84;20950;-57
2021/06/03 02:54:34;;;;;;;7.65;6.37;;;;;;;10.86;83.18;95062.32;1699153;84;21146;-57
2021/06/03 02:57:01;;;;;;;7.72;6.00;;;;;;;10.91;82.92;95067.27;1698902;84;21033;-58
2021/06/03 02:59:28;;;;;;;13.85;6.35;;;;;;;10.91;82.60;95065.89;1698970;83;20974;-57
2021/06/03 03:01:55;;;;;;;24.45;6.62;;;;;;;10.87;82.57;95061.11;1699015;84;21025;-54
2021/06/03 03:04:22;;;;;;;23.75;7.55;;;;;;;10.86;82.51;95066.45;1699121;84;21069;-57
2021/06/03 03:06:51;;;;;;;7.35;5.97;;;;;;;10.84;82.84;95071.59;1699067;82;21007;-55
2021/06/03 03:09:19;;;;;;;11.50;7.55;;;;;;;10.87;82.70;95073.50;1698982;84;20994;-53
2021/06/03 03:11:48;;;;;;;14.15;6.15;;;;;;;10.87;82.57;95081.75;1699096;84;20963;-54
2021/06/03 03:14:15;;;;;;;24.05;6.40;;;;;;;10.86;82.42;95070.58;1699065;84;21482;-54
2021/06/03 03:16:44;;;;;;;12.25;5.60;;;;;;;10.83;82.24;95071.44;1699044;84;21458;-54
2021/06/03 03:19:11;;;;;;;12.18;6.00;;;;;;;10.83;82.39;95076.19;1699233;83;21504;-54
2021/06/03 03:21:38;;;;;;;11.63;5.60;;;;;;;10.85;82.25;95088.30;1699214;84;21410;-54
2021/06/03 03:24:07;;;;;;;11.95;5.75;;;;;;;10.84;82.07;95083.23;1699436;84;21411;-55
2021/06/03 03:26:35;;;;;;;16.62;6.47;;;;;;;10.75;81.86;95082.51;1698895;83;20962;-54
2021/06/03 03:29:03;;;;;;;10.78;5.60;;;;;;;10.67;82.30;95077.66;1698906;84;20954;-55
2021/06/03 03:31:31;;;;;;;18.62;5.75;;;;;;;10.64;82.32;95089.55;1699123;83;21142;-56
2021/06/03 03:34:02;;;;;;;7.30;5.12;;;;;;;10.62;82.50;95082.94;1699061;84;21007;-55
2021/06/03 03:36:27;;;;;;;9.65;5.70;;;;;;;10.64;82.56;95084.63;1698809;84;21422;-59
2021/06/03 03:38:56;;;;;;;9.83;5.33;;;;;;;10.65;82.54;95091.67;1699212;84;21438;-58
2021/06/03 03:41:23;;;;;;;8.25;4.92;;;;;;;10.66;82.55;95083.59;1681516;84;21025;-61
2021/06/03 03:43:50;;;;;;;7.35;4.42;;;;;;;10.69;82.48;95089.61;1709605;84;21231;-55
2021/06/03 03:46:17;;;;;;;9.40;5.08;;;;;;;10.72;82.38;95090.11;1709277;84;20957;-55
2021/06/03 03:48:46;;;;;;;5.55;5.05;;;;;;;10.72;82.38;95092.23;1709458;84;20953;-55
2021/06/03 03:51:14;;;;;;;6.90;5.00;;;;;;;10.75;82.40;95100.39;1709326;84;21009;-55
2021/06/03 03:53:45;;;;;;;14.90;6.03;;;;;;;10.77;82.63;95097.97;1709507;84;21489;-55
2021/06/03 03:56:13;;;;;;;15.03;6.22;;;;;;;10.85;82.61;95099.31;1709061;84;21748;-55
2021/06/03 03:58:43;;;;;;;17.70;6.75;;;;;;;10.95;82.59;95096.82;1709311;84;21522;-54
2021/06/03 04:01:10;;;;;;;12.45;6.65;;;;;;;11.08;82.47;95100.35;1709629;84;21520;-55
2021/06/03 04:03:38;;;;;;;7.95;5.78;;;;;;;11.19;82.28;95106.27;1709533;84;21409;-56
2021/06/03 04:06:07;;;;;;;11.48;6.50;;;;;;;11.31;81.57;95102.75;1709433;84;20974;-54
2021/06/03 04:08:35;;;;;;;6.17;5.55;;;;;;;11.45;81.05;95102.88;1727600;81;21870;-54
2021/06/03 04:11:02;;;;;;;12.00;5.58;;;;;;;11.54;79.63;95098.86;1727527;83;21052;-55
2021/06/03 04:13:32;;;;;;;10.00;5.62;;;;;;;11.62;78.30;95095.45;1727662;83;20981;-55
2021/06/03 04:16:03;;;;;;;6.87;5.15;;;;;;;11.67;77.11;95105.11;1727594;83;21472;-55
2021/06/03 04:18:31;;;;;;;18.02;5.78;;;;;;;11.71;75.89;95113.44;1727580;83;21056;-56
2021/06/03 04:20:59;;;;;;;15.03;4.97;;;;;;;11.75;75.25;95113.33;1727529;83;21101;-56
2021/06/03 04:23:26;;;;;;;14.63;6.33;;;;;;;11.78;74.75;95116.56;1727674;83;21442;-55
2021/06/03 04:25:53;;;;;;;10.28;5.50;;;;;;;11.73;74.42;95118.52;1727618;83;21060;-54
2021/06/03 04:28:20;;;;;;;8.23;5.90;;;;;;;11.67;74.47;95111.41;1727592;81;20954;-55
2021/06/03 04:30:47;;;;;;;10.65;5.47;;;;;;;11.68;74.21;95117.71;1727744;83;20996;-55
2021/06/03 04:33:16;;;;;;;18.40;6.60;;;;;;;11.71;73.72;95123.08;1727633;81;21141;-55
2021/06/03 04:35:42;;;;;;;23.25;12.35;;;;;;;11.81;73.39;95118.42;1727739;83;21568;-54
2021/06/03 04:38:09;;;;;;;17.25;6.53;;;;;;;11.90;73.36;95120.66;1727965;83;20941;-56
2021/06/03 04:40:35;;;;;;;12.78;6.17;;;;;;;12.04;73.75;95120.80;1727673;83;20969;-55
2021/06/03 04:43:02;;;;;;;11.63;6.90;;;;;;;12.14;74.49;95121.02;1712770;83;21021;-54
2021/06/03 04:45:34;;;;;;;10.10;5.70;;;;;;;12.23;74.54;95119.09;1704587;84;21410;-55
2021/06/03 04:47:58;;;;;;;10.55;6.10;;;;;;;12.33;73.95;95124.07;1704092;82;21418;-56
2021/06/03 04:50:25;;;;;;;9.53;6.20;;;;;;;12.40;73.39;95116.91;1684417;84;21019;-55
2021/06/03 04:52:52;;;;;;;17.30;6.85;;;;;;;12.46;73.29;95124.16;1704459;83;21029;-55
2021/06/03 04:55:22;;;;;;;12.15;6.58;;;;;;;12.53;73.15;95119.78;1704406;84;20994;-55
2021/06/03 04:57:50;;;;;;;16.85;6.62;;;;;;;12.57;72.49;95123.92;1704409;84;21124;-55
2021/06/03 05:00:22;;;;;;;16.70;5.92;;;;;;;12.65;72.65;95131.34;1704564;84;20994;-55
2021/06/03 05:02:50;;;;;;;9.68;5.67;;;;;;;12.72;72.84;95129.71;1704331;84;20993;-57
2021/06/03 05:05:16;;;;;;;9.40;5.83;;;;;;;12.77;72.48;95123.60;1704454;83;21006;-56
2021/06/03 05:07:43;;;;;;;16.37;7.00;;;;;;;12.81;72.03;95131.92;1701030;82;21010;-55
2021/06/03 05:10:11;;;;;;;9.38;6.00;;;;;;;12.87;71.95;95125.95;1699200;84;21793;-57
2021/06/03 05:12:38;;;;;;;9.55;6.15;;;;;;;12.92;71.45;95134.27;1699172;84;20942;-55
2021/06/03 05:15:06;;;;;;;11.45;6.47;;;;;;;13.00;70.73;95133.58;1699087;84;21465;-56
2021/06/03 05:17:34;;;;;;;12.05;5.92;;;;;;;13.10;70.51;95130.25;1699131;84;21001;-55
2021/06/03 05:20:08;;;;;;;15.08;7.37;;;;;;;13.14;69.83;95136.41;1699117;84;21552;-56
2021/06/03 05:22:36;;;;;;;23.45;8.65;;;;;;;13.16;69.58;95140.86;1699362;84;21135;-56
2021/06/03 05:25:08;;;;;;;15.88;7.30;;;;;;;13.15;69.53;95139.32;1698871;84;21049;-56
2021/06/03 05:27:35;;;;;;;13.48;7.35;;;;;;;13.21;69.21;95143.80;1699105;83;20998;-55
2021/06/03 05:30:04;;;;;;;7.85;6.15;;;;;;;13.30;68.86;95142.45;1699133;84;21006;-55
2021/06/03 05:32:31;;;;;;;14.45;7.00;;;;;;;13.34;68.26;95143.09;1703676;82;21055;-55
2021/06/03 05:34:57;;;;;;;12.50;7.03;;;;;;;13.39;68.25;95143.09;1718818;83;21143;-60
2021/06/03 05:37:25;;;;;;;13.38;6.62;;;;;;;13.45;68.01;95149.58;1716893;82;21021;-57
2021/06/03 05:39:52;;;;;;;11.43;7.47;;;;;;;13.48;67.92;95152.81;1701037;83;21067;-59
2021/06/03 05:42:20;;;;;;;19.90;8.18;;;;;;;13.57;67.92;95150.06;1707417;82;21099;-56
2021/06/03 05:44:47;;;;;;;19.10;6.92;;;;;;;13.64;67.45;95140.12;1719265;81;21145;-59
2021/06/03 05:47:14;;;;;;;11.25;6.62;;;;;;;13.71;67.37;95153.64;1721714;81;21476;-58
2021/06/03 05:49:40;;;;;;;13.85;6.28;;;;;;;13.81;66.92;95162.13;1730742;81;21028;-56
2021/06/03 05:52:08;;;;;;;18.07;7.35;;;;;;;13.88;66.73;95161.83;1689810;81;22224;-57
2021/06/03 05:54:34;;;;;;;16.85;8.20;;;;;;;13.94;66.52;95156.62;1711711;81;21014;-56
2021/06/03 05:57:01;;;;;;;18.45;7.62;;;;;;;13.98;66.64;95155.09;1719097;83;21002;-57
2021/06/03 05:59:28;;;;;;;14.35;9.25;;;;;;;14.07;66.66;95152.33;1717499;81;21150;-56
2021/06/03 06:02:01;;;;;;;13.00;7.72;;;;;;;14.19;66.15;95155.61;1713006;81;21125;-57
2021/06/03 06:06:55;;;;;;;10.72;7.35;;;;;;;14.38;65.62;95160.67;1704895;81;21041;-59
2021/06/03 06:09:23;;;;;;;19.67;7.05;;;;;;;14.51;65.18;95162.08;1707910;81;21275;-59
2021/06/03 06:11:50;;;;;;;17.23;7.00;;;;;;;14.64;65.10;95164.05;1714059;81;21092;-58
2021/06/03 06:14:17;;;;;;;10.23;6.83;;;;;;;14.72;64.82;95165.30;1703119;81;21045;-58
2021/06/03 06:16:45;;;;;;;12.18;7.30;;;;;;;14.83;64.56;95167.59;1702785;82;21048;-58
2021/06/03 06:19:12;;;;;;;8.70;6.08;;;;;;;14.94;64.09;95165.88;1723775;81;21625;-58
2021/06/03 06:21:40;;;;;;;15.30;6.15;;;;;;;15.02;63.29;95164.30;1714470;81;20989;-62
2021/06/03 06:24:09;;;;;;;18.45;6.65;;;;;;;15.08;62.61;95162.45;1719211;81;21715;-57
2021/06/03 06:26:35;;;;;;;13.10;6.75;;;;;;;15.12;62.86;95167.82;1744852;80;21558;-61
2021/06/03 06:29:05;;;;;;;9.73;6.55;;;;;;;15.22;62.16;95169.34;1696766;81;21005;-56
2021/06/03 06:31:32;;;;;;;10.00;6.72;;;;;;;15.28;61.92;95176.56;1716878;82;21528;-59
2021/06/03 06:33:59;;;;;;;24.00;7.28;;;;;;;15.37;61.78;95168.87;1712106;81;21066;-60
2021/06/03 06:36:26;;;;;;;12.35;6.40;;;;;;;15.41;61.63;95168.08;1715525;81;21117;-59
2021/06/03 06:38:53;;;;;;;13.75;7.00;;;;;;;15.47;61.20;95166.98;1696366;81;21119;-65
2021/06/03 06:41:21;;;;;;;10.20;6.62;;;;;;;15.55;61.06;95165.39;1713562;82;21019;-70
2021/06/03 06:43:48;;;;;;;12.73;6.70;;;;;;;15.71;60.94;95172.59;1728611;80;21045;-60
2021/06/03 06:46:15;;;;;;;10.58;6.85;;;;;;;15.85;60.44;95172.66;1725066;81;21020;-58
2021/06/03 06:48:43;;;;;;;9.95;6.47;;;;;;;15.92;59.73;95168.77;1714148;81;21148;-63
2021/06/03 06:51:09;;;;;;;13.58;7.40;;;;;;;15.96;59.45;95177.08;1725333;82;21010;-70
2021/06/03 06:53:36;;;;;;;13.22;7.20;;;;;;;15.99;59.57;95158.09;1705274;83;21084;-57
2021/06/03 06:56:06;;;;;;;11.88;6.90;;;;;;;16.05;59.21;95164.52;1701783;82;21059;-63
2021/06/03 06:58:33;;;;;;;25.52;7.55;;;;;;;16.15;59.52;95169.39;1715525;81;20917;-60
2021/06/03 07:01:02;;;;;;;9.13;6.80;;;;;;;16.24;59.25;95165.94;1685468;83;21151;-63
2021/06/03 07:03:29;;;;;;;7.87;5.35;;;;;;;16.35;58.63;95171.77;1689046;82;21710;-61
2021/06/03 07:05:55;;;;;;;10.10;5.80;;;;;;;16.43;57.27;95170.15;1668890;85;20987;-60
2021/06/03 07:08:21;;;;;;;10.32;5.12;;;;;;;16.55;56.86;95163.58;1658685;84;21923;-59
2021/06/03 07:10:50;;;;;;;10.30;4.83;;;;;;;16.69;56.41;95167.77;1658194;84;21084;-60
2021/06/03 07:13:17;;;;;;;12.58;4.80;;;;;;;16.80;54.51;95174.16;1713617;83;21140;-60
2021/06/03 07:15:44;;;;;;;12.90;4.65;;;;;;;16.84;53.21;95169.97;1679687;84;21113;-64
2021/06/03 07:18:11;;;;;;;9.20;4.62;;;;;;;16.89;52.41;95169.92;1704427;83;21100;-58
2021/06/03 07:20:40;;;;;;;12.98;4.87;;;;;;;16.95;52.15;95170.78;1684330;83;22197;-63
2021/06/03 07:23:07;;;;;;;14.07;5.53;;;;;;;17.00;51.60;95179.84;1700234;81;21558;-59
2021/06/03 07:25:36;;;;;;;11.35;5.20;;;;;;;17.07;51.59;95179.48;1689490;83;21470;-65
2021/06/03 07:28:05;;;;;;;8.68;4.85;;;;;;;17.13;51.02;95176.92;1688787;84;21065;-60
2021/06/03 07:30:32;;;;;;;7.40;4.00;;;;;;;17.21;51.44;95182.88;1687521;83;21000;-60
2021/06/03 07:33:00;;;;;;;4.78;4.03;;;;;;;17.29;49.95;95188.97;1677691;84;21065;-61
2021/06/03 07:35:28;;;;;;;10.63;4.45;;;;;;;17.36;49.96;95183.06;1662895;84;21084;-61
2021/06/03 07:37:56;;;;;;;11.88;4.62;;;;;;;17.45;50.33;95187.77;1681658;83;21158;-62
2021/06/03 07:40:26;;;;;;;8.10;3.75;;;;;;;17.53;49.13;95184.72;1672677;85;21033;-62
2021/06/03 07:42:55;;;;;;;9.23;3.77;;;;;;;17.63;48.50;95191.09;1666481;85;21130;-62
2021/06/03 07:45:24;;;;;;;7.40;3.72;;;;;;;17.65;46.88;95182.27;1677181;84;21034;-60
2021/06/03 07:47:52;;;;;;;5.95;3.90;;;;;;;17.66;48.15;95181.02;1673665;84;21070;-61
2021/06/03 07:50:19;;;;;;;9.23;3.35;;;;;;;17.75;47.71;95185.07;1682171;85;21789;-63
2021/06/03 07:52:46;;;;;;;14.58;4.53;;;;;;;17.76;46.87;95190.78;1661170;84;21040;-62
2021/06/03 07:55:14;;;;;;;5.12;3.10;;;;;;;17.83;47.29;95182.05;1694849;83;21146;-59
2021/06/03 07:57:43;;;;;;;4.70;2.92;;;;;;;17.98;48.03;95187.71;1679780;85;21067;-68
2021/06/03 08:00:12;;;;;;;7.95;3.20;;;;;;;18.13;47.60;95180.70;1646162;85;21081;-61
2021/06/03 08:02:42;;;;;;;6.83;4.30;;;;;;;18.23;47.58;95188.44;1719355;83;21147;-61
2021/06/03 08:05:10;;;;;;;10.98;6.75;;;;;;;18.32;46.17;95181.39;1682463;83;21114;-59
2021/06/03 08:07:36;;;;;;;16.73;13.00;;;;;;;18.35;45.01;95177.02;1705335;81;21084;-60
2021/06/03 08:10:09;;;;;;;4.85;3.62;;;;;;;18.39;44.88;95177.56;1712480;81;21052;-62
2021/06/03 08:12:36;;;;;;;13.50;4.42;;;;;;;18.46;44.53;95179.92;1721825;81;21614;-60
2021/06/03 08:15:05;;;;;;;8.58;5.65;;;;;;;18.50;46.02;95183.27;1732171;82;21121;-60
2021/06/03 08:17:32;;;;;;;10.82;6.12;;;;;;;18.59;44.95;95184.53;1720466;81;21014;-62
2021/06/03 08:19:59;;;;;;;12.35;5.50;;;;;;;18.68;44.93;95188.55;1710571;81;21045;-61
2021/06/03 08:22:27;;;;;;;3.72;2.75;;;;;;;18.70;44.58;95186.07;1715337;81;21037;-63
2021/06/03 08:24:53;;;;;;;12.03;3.87;;;;;;;18.72;42.89;95190.53;1720081;81;21198;-61
2021/06/03 08:27:21;;;;;;;7.75;2.75;;;;;;;18.58;43.21;95188.58;1705822;82;21145;-61
2021/06/03 08:29:47;;;;;;;4.12;2.60;;;;;;;18.46;41.85;95193.86;1708843;81;21049;-59
2021/06/03 08:32:15;;;;;;;6.17;3.83;;;;;;;18.33;43.65;95193.45;1714615;82;21004;-65
2021/06/03 08:34:41;;;;;;;7.67;3.62;;;;;;;18.25;45.25;95192.28;1730011;81;21065;-61
2021/06/03 08:37:10;;;;;;;6.28;3.50;;;;;;;18.23;44.96;95188.44;1713518;82;21056;-62
2021/06/03 08:39:37;;;;;;;5.72;2.70;;;;;;;18.26;44.66;95185.45;1719492;82;21566;-62
2021/06/03 08:42:07;;;;;;;10.03;3.20;;;;;;;18.38;43.72;95198.33;1725666;81;21025;-61
2021/06/03 08:44:34;;;;;;;8.95;5.22;;;;;;;18.45;43.42;95192.33;1705045;81;21075;-61
2021/06/03 08:47:00;;;;;;;16.70;4.15;;;;;;;18.47;42.37;95188.42;1693502;82;21040;-60
2021/06/03 08:49:27;;;;;;;9.18;4.05;;;;;;;18.41;42.39;95188.98;1709952;82;21035;-60
2021/06/03 08:51:54;;;;;;;4.17;2.58;;;;;;;18.34;43.67;95198.38;1718251;82;21335;-62
2021/06/03 08:54:21;;;;;;;5.50;2.75;;;;;;;18.33;42.18;95196.85;1716738;82;21168;-60
2021/06/03 08:56:48;;;;;;;2.83;2.52;;;;;;;18.29;41.40;95196.30;1702558;82;21088;-65
2021/06/03 08:59:16;;;;;;;4.28;2.40;;;;;;;18.18;41.69;95194.71;1729188;82;21039;-64
2021/06/03 09:01:44;;;;;;;11.63;3.15;;;;;;;18.12;42.24;95200.05;1704739;82;20981;-60
2021/06/03 09:04:11;;;;;;;3.15;2.65;;;;;;;18.15;42.53;95199.11;1712399;82;21146;-62
2021/06/03 09:06:37;;;;;;;3.67;2.75;;;;;;;18.25;42.61;95192.28;1700888;82;21154;-59
2021/06/03 09:09:05;;;;;;;5.62;2.65;;;;;;;18.40;40.96;95178.31;1694467;82;21116;-61
2021/06/03 09:11:34;;;;;;;5.05;3.08;;;;;;;18.51;40.96;95169.50;1710821;82;22454;-61
2021/06/03 09:14:04;;;;;;;13.43;2.95;;;;;;;18.61;40.26;95170.88;1702581;82;21015;-64
2021/06/03 09:16:37;;;;;;;8.95;2.67;;;;;;;18.68;42.32;95178.80;1701358;82;21794;-62
2021/06/03 09:19:11;;;;;;;12.47;3.47;;;;;;;18.70;41.14;95183.28;1703489;82;20990;-62
2021/06/03 09:21:50;;;;;;;9.60;3.72;;;;;;;18.61;41.06;95177.84;1706381;82;21068;-63
2021/06/03 09:24:21;;;;;;;3.60;3.02;;;;;;;18.51;41.29;95183.43;1635279;85;21093;-63
2021/06/03 09:26:55;;;;;;;4.50;2.90;;;;;;;18.36;42.21;95186.91;1712505;81;21043;-63
2021/06/03 09:29:32;;;;;;;4.97;3.40;;;;;;;18.20;41.81;95178.27;1712560;82;21078;-62
2021/06/03 09:32:08;;;;;;;5.70;2.60;;;;;;;17.93;42.72;95182.05;1646544;85;21553;-61
2021/06/03 09:34:39;;;;;;;5.05;3.22;;;;;;;17.63;43.06;95184.77;1706631;82;22188;-60
2021/06/03 09:37:08;;;;;;;4.50;3.17;;;;;;;17.44;44.31;95186.23;1694091;82;21060;-60
2021/06/03 09:39:40;;;;;;;7.62;3.02;;;;;;;17.45;45.26;95194.72;1705509;82;21039;-66
2021/06/03 09:42:15;;;;;;;6.40;3.25;;;;;;;17.55;44.18;95191.96;1689083;82;21158;-64
2021/06/03 09:44:49;;;;;;;13.93;3.55;;;;;;;17.64;44.31;95189.09;1710171;82;21132;-65
2021/06/03 09:47:26;;;;;;;6.50;3.47;;;;;;;17.77;44.75;95188.13;1719832;81;21053;-56
2021/06/03 09:49:57;;;;;;;9.33;3.52;;;;;;;17.92;45.41;95190.27;1711867;82;22198;-67
2021/06/03 09:52:35;;;;;;;9.33;3.17;;;;;;;18.07;44.93;95192.39;1715716;81;21590;-69
2021/06/03 09:55:10;;;;;;;2.50;2.30;;;;;;;18.17;45.65;95199.39;1739141;81;21081;-62
2021/06/03 09:57:43;;;;;;;4.72;2.72;;;;;;;18.18;41.83;95198.89;1723026;81;21069;-63
2021/06/03 10:00:16;;;;;;;7.37;3.40;;;;;;;17.97;42.73;95193.78;1713461;81;21079;-63
2021/06/03 10:02:45;;;;;;;4.37;3.30;;;;;;;17.82;43.27;95200.00;1709772;81;21048;-63
2021/06/03 10:05:17;;;;;;;6.30;3.45;;;;;;;17.75;44.41;95198.98;1700424;83;21114;-62
2021/06/03 10:08:04;;;;;;;22.67;3.40;;;;;;;17.72;43.90;95191.61;1717519;81;21173;-62
2021/06/03 10:10:42;;;;;;;9.30;3.70;;;;;;;17.76;45.10;95203.30;1690886;81;21025;-62
2021/06/03 10:13:10;;;;;;;4.85;3.12;;;;;;;17.83;42.27;95193.94;1684454;83;21085;-63
2021/06/03 10:15:40;;;;;;;3.40;2.60;;;;;;;17.89;42.70;95194.02;1720518;82;21071;-64
2021/06/03 10:18:19;;;;;;;21.17;4.65;;;;;;;18.01;42.61;95192.95;1702269;83;21073;-64
2021/06/03 10:20:53;;;;;;;7.05;3.15;;;;;;;18.16;42.18;95190.89;1720499;83;21047;-61
2021/06/03 10:23:28;;;;;;;5.33;2.80;;;;;;;18.32;42.80;95189.11;1719801;83;21119;-62
2021/06/03 10:26:03;;;;;;;5.50;2.62;;;;;;;18.45;41.51;95189.55;1720000;82;21066;-61
2021/06/03 10:28:30;;;;;;;4.17;3.05;;;;;;;18.46;41.02;95191.08;1720528;82;21050;-61
2021/06/03 10:31:05;;;;;;;2.70;2.50;;;;;;;18.45;41.73;95196.51;1711988;81;21059;-62
2021/06/03 10:33:30;;;;;;;6.45;3.15;;;;;;;18.36;41.41;95195.27;1735426;82;21140;-64
2021/06/03 10:36:03;;;;;;;6.85;2.83;;;;;;;18.16;41.65;95200.00;1731485;82;21097;-61
2021/06/03 10:38:29;;;;;;;5.42;3.58;;;;;;;18.03;42.56;95196.02;1736891;82;20974;-61
2021/06/03 10:40:59;;;;;;;4.10;2.85;;;;;;;17.99;42.93;95198.98;1738040;82;21041;-63
2021/06/03 10:43:27;;;;;;;9.88;3.27;;;;;;;18.00;43.21;95203.30;1738104;82;21517;-61
2021/06/03 10:45:55;;;;;;;5.40;3.33;;;;;;;18.03;43.34;95193.23;1730774;80;21376;-63
2021/06/03 10:48:22;;;;;;;7.28;3.25;;;;;;;18.15;43.67;95197.72;1711985;83;21115;-62
2021/06/03 10:50:51;;;;;;;12.33;4.30;;;;;;;18.28;41.66;95201.73;1675081;85;21117;-60
2021/06/03 10:53:22;;;;;;;9.95;3.47;;;;;;;18.45;41.47;95190.94;1697690;84;21116;-62
2021/06/03 10:55:54;;;;;;;6.12;3.00;;;;;;;18.94;41.90;95183.80;1699726;84;20991;-63
2021/06/03 10:58:37;;;;;;;11.88;3.50;;;;;;;19.19;39.58;95185.86;1689289;84;21201;-61
2021/06/03 11:01:11;;;;;;;9.08;3.20;;;;;;;19.31;38.56;95181.94;1691326;83;21145;-62
2021/06/03 11:03:57;;;;;;;13.53;4.47;;;;;;;19.29;39.29;95185.84;1676398;83;21069;-63
2021/06/03 11:06:26;;;;;;;13.62;3.42;;;;;;;19.19;39.68;95182.33;1661958;83;21562;-63
2021/06/03 11:09:04;;;;;;;13.98;3.50;;;;;;;19.12;39.98;95186.28;1688820;84;21130;-63
2021/06/03 11:11:38;;;;;;;7.27;3.17;;;;;;;19.03;41.02;95186.42;1661732;84;21072;-64
2021/06/03 11:14:17;;;;;;;4.15;2.87;;;;;;;18.89;40.57;95198.46;1680956;84;21652;-63
2021/06/03 11:16:56;;;;;;;4.45;2.60;;;;;;;18.76;40.38;95192.47;1678501;84;21057;-61
2021/06/03 11:19:27;;;;;;;5.45;2.98;;;;;;;18.68;40.31;95198.31;1674353;85;21038;-63
2021/06/03 11:22:05;;;;;;;25.05;4.12;;;;;;;18.64;40.05;95199.16;1691847;84;21072;-62
2021/06/03 11:24:39;;;;;;;6.15;2.55;;;;;;;18.69;40.40;95198.48;1663682;84;21329;-62
2021/06/03 11:27:12;;;;;;;;;;;;;;;18.81;39.81;95197.98;1692504;83;21133;-66
2021/06/03 11:29:51;;;;;;;11.20;2.98;;;;;;;18.83;39.00;95203.83;1671702;85;20195;-64
2021/06/03 11:32:24;;;;;;;4.80;2.40;;;;;;;18.82;38.81;95210.66;1707138;83;21064;-64
2021/06/03 11:34:56;;;;;;;4.60;2.87;;;;;;;18.75;39.03;95205.49;1657957;85;21183;-60
2021/06/03 11:37:30;;;;;;;4.37;2.67;;;;;;;18.58;38.53;95203.91;1644446;85;21374;-66
2021/06/03 11:40:08;;;;;;;9.75;3.17;;;;;;;18.34;39.21;95207.52;1691411;83;21049;-60
2021/06/03 11:43:04;;;;;;;5.97;3.20;;;;;;;18.17;39.42;95214.70;1692813;83;21145;-66